sensor_id;sensor_type;location;lat;lon;timestamp;P1;P4;P2;P0;N10;N4;N25;N1;N05;TS
84988;SPS30;75301;48.238;16.346;2024-02-28T00:04:42;7.8;;7.8;7.4;;;;;;
84988;SPS30;75301;48.238;16.346;2024-02-28T00:09:42;8.4;;8.4;8.0;;;;;;
84988;SPS30;75301;48.238;16.346;2024-02-28T00:14:42;8.5;;8.5;8.1;;;;;;
84988;SPS30;75301;48.238;16.346;2024-02-28T00:19:42;7.5;;7.5;7.2;;;;;;
84988;SPS30;75301;48.238;16.346;2024-02-28T00:24:42;8.0;;8.0;7.6;;;;;;
84988;SPS30;75301;48.238;16.346;2024-02-28T00:29:42;8.4;;8.5;7.9;;;;;;
84988;SPS30;75301;48.238;16.346;2024-02-28T00:34:42;7.9;;7.9;7.5;;;;;;
84988;SPS30;75301;48.238;16.346;2024-02-28T00:39:42;8.2;;8.2;7.8;;;;;;
84988;SPS30;75301;48.238;16.346;2024-02-28T00:44:42;7.7;;7.7;7.4;;;;;;
84988;SPS30;75301;48.238;16.346;2024-02-28T00:49:42;7.8;;7.8;7.4;;;;;;
84988;SPS30;75301;48.238;16.346;2024-02-28T00:54:42;8.5;;8.5;8.1;;;;;;
84988;SPS30;75301;48.238;16.346;2024-02-28T00:59:42;7.4;;7.4;7.1;;;;;;
84988;SPS30;75301;48.238;16.346;2024-02-28T01:04:42;8.1;;8.1;7.7;;;;;;
84988;SPS30;75301;48.238;16.346;2024-02-28T01:09:42;7.6;;7.6;7.2;;;;;;
84988;SPS30;75301;48.238;16.346;2024-02-28T01:14:42;7.3;;7.3;7.0;;;;;;
84988;SPS30;75301;48.238;16.346;2024-02-28T01:19:42;7.2;;7.4;6.8;;;;;;
84988;SPS30;75301;48.238;16.346;2024-02-28T01:24:42;6.7;;6.7;6.4;;;;;;
84988;SPS30;75301;48.238;16.346;2024-02-28T01:29:42;7.7;;7.7;7.3;;;;;;
84988;SPS30;75301;48.238;16.346;2024-02-28T01:34:42;8.0;;8.0;7.6;;;;;;
84988;SPS30;75301;48.238;16.346;2024-02-28T01:39:42;7.8;;7.8;7.4;;;;;;
84988;SPS30;75301;48.238;16.346;2024-02-28T01:44:43;6.7;;6.7;6.4;;;;;;
84988;SPS30;75301;48.238;16.346;2024-02-28T01:49:42;6.7;;6.7;6.4;;;;;;
84988;SPS30;75301;48.238;16.346;2024-02-28T01:54:42;7.0;;7.0;6.6;;;;;;
84988;SPS30;75301;48.238;16.346;2024-02-28T01:59:42;6.8;;6.8;6.5;;;;;;
84988;SPS30;75301;48.238;16.346;2024-02-28T02:04:42;6.5;;6.5;6.2;;;;;;
84988;SPS30;75301;48.238;16.346;2024-02-28T02:09:42;6.1;;6.1;5.8;;;;;;
84988;SPS30;75301;48.238;16.346;2024-02-28T02:14:42;6.0;;6.0;5.7;;;;;;
84988;SPS30;75301;48.238;16.346;2024-02-28T02:19:42;6.2;;6.2;5.9;;;;;;
84988;SPS30;75301;48.238;16.346;2024-02-28T02:24:42;5.6;;5.6;5.3;;;;;;
84988;SPS30;75301;48.238;16.346;2024-02-28T02:29:42;5.3;;5.3;5.1;;;;;;
84988;SPS30;75301;48.238;16.346;2024-02-28T02:34:42;5.8;;5.8;5.5;;;;;;
84988;SPS30;75301;48.238;16.346;2024-02-28T02:39:42;6.1;;6.1;5.8;;;;;;
84988;SPS30;75301;48.238;16.346;2024-02-28T02:44:42;5.5;;5.5;5.2;;;;;;
84988;SPS30;75301;48.238;16.346;2024-02-28T02:49:42;5.3;;5.3;5.1;;;;;;
84988;SPS30;75301;48.238;16.346;2024-02-28T02:54:42;5.8;;5.8;5.5;;;;;;
84988;SPS30;75301;48.238;16.346;2024-02-28T02:59:42;6.4;;6.4;6.1;;;;;;
84988;SPS30;75301;48.238;16.346;2024-02-28T03:04:42;5.9;;5.9;5.6;;;;;;
84988;SPS30;75301;48.238;16.346;2024-02-28T03:09:42;6.5;;6.5;6.2;;;;;;
84988;SPS30;75301;48.238;16.346;2024-02-28T03:14:42;6.9;;6.9;6.6;;;;;;
84988;SPS30;75301;48.238;16.346;2024-02-28T03:19:42;6.4;;6.4;6.1;;;;;;
84988;SPS30;75301;48.238;16.346;2024-02-28T03:24:42;6.5;;6.6;6.2;;;;;;
84988;SPS30;75301;48.238;16.346;2024-02-28T03:29:42;7.2;;7.2;6.9;;;;;;
84988;SPS30;75301;48.238;16.346;2024-02-28T03:34:42;6.2;;6.2;5.9;;;;;;
84988;SPS30;75301;48.238;16.346;2024-02-28T03:39:42;6.1;;6.3;5.7;;;;;;
84988;SPS30;75301;48.238;16.346;2024-02-28T03:44:42;6.1;;6.1;5.8;;;;;;
84988;SPS30;75301;48.238;16.346;2024-02-28T03:49:42;7.0;;7.0;6.6;;;;;;
84988;SPS30;75301;48.238;16.346;2024-02-28T03:54:43;11.3;;11.5;10.6;;;;;;
84988;SPS30;75301;48.238;16.346;2024-02-28T03:59:42;11.8;;11.8;11.3;;;;;;
84988;SPS30;75301;48.238;16.346;2024-02-28T04:04:42;17.2;;17.2;16.4;;;;;;
84988;SPS30;75301;48.238;16.346;2024-02-28T04:09:42;17.4;;17.7;16.4;;;;;;
84988;SPS30;75301;48.238;16.346;2024-02-28T04:14:42;18.6;;18.6;17.7;;;;;;
84988;SPS30;75301;48.238;16.346;2024-02-28T04:19:42;19.6;;19.6;18.7;;;;;;
84988;SPS30;75301;48.238;16.346;2024-02-28T04:24:42;21.1;;21.1;20.2;;;;;;
84988;SPS30;75301;48.238;16.346;2024-02-28T04:29:42;24.7;;25.4;23.0;;;;;;
84988;SPS30;75301;48.238;16.346;2024-02-28T04:34:42;24.4;;24.5;23.1;;;;;;
84988;SPS30;75301;48.238;16.346;2024-02-28T04:39:42;24.3;;24.3;23.2;;;;;;
84988;SPS30;75301;48.238;16.346;2024-02-28T04:44:42;25.7;;25.7;24.5;;;;;;
84988;SPS30;75301;48.238;16.346;2024-02-28T04:49:42;25.5;;25.8;24.0;;;;;;
84988;SPS30;75301;48.238;16.346;2024-02-28T04:54:42;26.1;;26.3;24.7;;;;;;
84988;SPS30;75301;48.238;16.346;2024-02-28T04:59:42;26.9;;27.0;25.6;;;;;;
84988;SPS30;75301;48.238;16.346;2024-02-28T05:04:42;27.2;;27.2;25.9;;;;;;
84988;SPS30;75301;48.238;16.346;2024-02-28T05:09:42;26.2;;26.3;25.0;;;;;;
84988;SPS30;75301;48.238;16.346;2024-02-28T05:14:42;27.6;;27.6;26.3;;;;;;
84988;SPS30;75301;48.238;16.346;2024-02-28T05:19:42;27.0;;27.3;25.5;;;;;;
84988;SPS30;75301;48.238;16.346;2024-02-28T05:24:42;27.2;;27.2;25.9;;;;;;
84988;SPS30;75301;48.238;16.346;2024-02-28T05:29:42;30.5;;30.5;29.1;;;;;;
84988;SPS30;75301;48.238;16.346;2024-02-28T05:34:42;28.3;;28.3;27.0;;;;;;
84988;SPS30;75301;48.238;16.346;2024-02-28T05:39:42;29.0;;29.3;27.5;;;;;;
84988;SPS30;75301;48.238;16.346;2024-02-28T05:44:42;29.4;;29.4;28.0;;;;;;
84988;SPS30;75301;48.238;16.346;2024-02-28T05:49:42;30.3;;30.3;28.8;;;;;;
84988;SPS30;75301;48.238;16.346;2024-02-28T05:54:42;31.3;;32.4;29.0;;;;;;
84988;SPS30;75301;48.238;16.346;2024-02-28T05:59:42;30.8;;31.8;28.5;;;;;;
84988;SPS30;75301;48.238;16.346;2024-02-28T06:04:42;32.7;;33.3;30.6;;;;;;
84988;SPS30;75301;48.238;16.346;2024-02-28T06:09:42;33.8;;35.6;30.8;;;;;;
84988;SPS30;75301;48.238;16.346;2024-02-28T06:14:42;34.0;;35.0;31.6;;;;;;
84988;SPS30;75301;48.238;16.346;2024-02-28T06:19:42;31.1;;32.0;28.9;;;;;;
84988;SPS30;75301;48.238;16.346;2024-02-28T06:24:42;31.5;;32.1;29.5;;;;;;
84988;SPS30;75301;48.238;16.346;2024-02-28T06:29:42;31.9;;33.4;29.2;;;;;;
84988;SPS30;75301;48.238;16.346;2024-02-28T06:34:42;32.9;;33.0;31.3;;;;;;
84988;SPS30;75301;48.238;16.346;2024-02-28T06:39:42;33.5;;35.0;30.8;;;;;;
84988;SPS30;75301;48.238;16.346;2024-02-28T06:44:42;32.5;;32.6;30.9;;;;;;
84988;SPS30;75301;48.238;16.346;2024-02-28T06:49:42;32.4;;32.7;30.7;;;;;;
84988;SPS30;75301;48.238;16.346;2024-02-28T06:54:42;34.2;;34.6;32.3;;;;;;
84988;SPS30;75301;48.238;16.346;2024-02-28T06:59:42;33.9;;34.3;32.0;;;;;;
84988;SPS30;75301;48.238;16.346;2024-02-28T07:04:42;34.2;;35.2;31.8;;;;;;
84988;SPS30;75301;48.238;16.346;2024-02-28T07:09:42;33.8;;34.4;31.8;;;;;;
84988;SPS30;75301;48.238;16.346;2024-02-28T07:14:42;34.4;;34.9;32.4;;;;;;
84988;SPS30;75301;48.238;16.346;2024-02-28T07:19:42;35.9;;37.8;32.8;;;;;;
84988;SPS30;75301;48.238;16.346;2024-02-28T07:24:42;34.7;;34.9;32.9;;;;;;
84988;SPS30;75301;48.238;16.346;2024-02-28T07:29:42;34.3;;34.7;32.4;;;;;;
84988;SPS30;75301;48.238;16.346;2024-02-28T07:34:42;34.9;;35.1;33.2;;;;;;
84988;SPS30;75301;48.238;16.346;2024-02-28T07:39:42;33.2;;33.2;31.6;;;;;;
84988;SPS30;75301;48.238;16.346;2024-02-28T07:44:42;35.0;;35.4;33.1;;;;;;
84988;SPS30;75301;48.238;16.346;2024-02-28T07:49:42;37.5;;39.2;34.4;;;;;;
84988;SPS30;75301;48.238;16.346;2024-02-28T07:54:42;32.5;;32.5;31.0;;;;;;
84988;SPS30;75301;48.238;16.346;2024-02-28T07:59:42;32.3;;32.3;30.8;;;;;;
84988;SPS30;75301;48.238;16.346;2024-02-28T08:04:42;34.0;;35.0;31.7;;;;;;
84988;SPS30;75301;48.238;16.346;2024-02-28T08:09:42;34.9;;36.9;31.7;;;;;;
84988;SPS30;75301;48.238;16.346;2024-02-28T08:14:42;34.2;;34.2;32.7;;;;;;
84988;SPS30;75301;48.238;16.346;2024-02-28T08:19:42;33.8;;33.8;32.2;;;;;;
84988;SPS30;75301;48.238;16.346;2024-02-28T08:24:42;34.7;;36.3;31.8;;;;;;
84988;SPS30;75301;48.238;16.346;2024-02-28T08:29:42;33.9;;34.0;32.2;;;;;;
84988;SPS30;75301;48.238;16.346;2024-02-28T08:34:44;34.8;;35.4;32.7;;;;;;
84988;SPS30;75301;48.238;16.346;2024-02-28T08:39:42;35.3;;37.5;32.0;;;;;;
84988;SPS30;75301;48.238;16.346;2024-02-28T08:44:42;31.0;;31.0;29.6;;;;;;
84988;SPS30;75301;48.238;16.346;2024-02-28T08:49:42;33.9;;34.4;31.8;;;;;;
84988;SPS30;75301;48.238;16.346;2024-02-28T08:54:42;31.7;;31.7;30.2;;;;;;
84988;SPS30;75301;48.238;16.346;2024-02-28T08:59:42;34.2;;34.2;32.6;;;;;;
84988;SPS30;75301;48.238;16.346;2024-02-28T09:04:42;34.3;;34.6;32.4;;;;;;
84988;SPS30;75301;48.238;16.346;2024-02-28T09:09:42;33.2;;33.9;31.2;;;;;;
84988;SPS30;75301;48.238;16.346;2024-02-28T09:14:42;31.3;;31.8;29.5;;;;;;
84988;SPS30;75301;48.238;16.346;2024-02-28T09:19:42;33.8;;35.1;31.2;;;;;;
84988;SPS30;75301;48.238;16.346;2024-02-28T09:24:42;32.0;;33.6;29.3;;;;;;
84988;SPS30;75301;48.238;16.346;2024-02-28T09:29:42;32.7;;34.1;30.1;;;;;;
84988;SPS30;75301;48.238;16.346;2024-02-28T09:34:42;31.3;;31.5;29.7;;;;;;
84988;SPS30;75301;48.238;16.346;2024-02-28T09:39:42;31.5;;32.0;29.7;;;;;;
84988;SPS30;75301;48.238;16.346;2024-02-28T09:44:42;32.3;;32.3;30.8;;;;;;
84988;SPS30;75301;48.238;16.346;2024-02-28T09:49:42;30.9;;30.9;29.5;;;;;;
84988;SPS30;75301;48.238;16.346;2024-02-28T09:54:42;32.3;;33.5;29.9;;;;;;
84988;SPS30;75301;48.238;16.346;2024-02-28T09:59:42;33.1;;33.2;31.5;;;;;;
84988;SPS30;75301;48.238;16.346;2024-02-28T10:04:42;33.3;;34.0;31.2;;;;;;
84988;SPS30;75301;48.238;16.346;2024-02-28T10:09:42;32.8;;32.8;31.2;;;;;;
84988;SPS30;75301;48.238;16.346;2024-02-28T10:14:42;33.3;;34.7;30.6;;;;;;
84988;SPS30;75301;48.238;16.346;2024-02-28T10:19:42;31.9;;32.5;30.0;;;;;;
84988;SPS30;75301;48.238;16.346;2024-02-28T10:24:42;32.9;;34.1;30.5;;;;;;
84988;SPS30;75301;48.238;16.346;2024-02-28T10:29:42;34.3;;35.6;31.6;;;;;;
84988;SPS30;75301;48.238;16.346;2024-02-28T10:34:42;31.5;;32.0;29.6;;;;;;
84988;SPS30;75301;48.238;16.346;2024-02-28T10:39:42;33.4;;34.8;30.7;;;;;;
84988;SPS30;75301;48.238;16.346;2024-02-28T10:44:42;33.0;;34.0;30.7;;;;;;
84988;SPS30;75301;48.238;16.346;2024-02-28T10:49:43;34.1;;35.6;31.4;;;;;;
84988;SPS30;75301;48.238;16.346;2024-02-28T10:54:42;31.1;;31.3;29.5;;;;;;
84988;SPS30;75301;48.238;16.346;2024-02-28T10:59:43;30.3;;30.9;28.5;;;;;;
84988;SPS30;75301;48.238;16.346;2024-02-28T11:04:42;29.1;;29.6;27.3;;;;;;
84988;SPS30;75301;48.238;16.346;2024-02-28T11:09:42;30.0;;30.1;28.6;;;;;;
84988;SPS30;75301;48.238;16.346;2024-02-28T11:14:42;29.8;;30.7;27.8;;;;;;
84988;SPS30;75301;48.238;16.346;2024-02-28T11:19:42;31.9;;31.9;30.4;;;;;;
84988;SPS30;75301;48.238;16.346;2024-02-28T11:24:42;31.6;;32.1;29.8;;;;;;
84988;SPS30;75301;48.238;16.346;2024-02-28T11:29:42;33.0;;33.4;31.2;;;;;;
84988;SPS30;75301;48.238;16.346;2024-02-28T11:34:42;32.8;;33.9;30.4;;;;;;
84988;SPS30;75301;48.238;16.346;2024-02-28T11:39:46;32.0;;33.3;29.5;;;;;;
84988;SPS30;75301;48.238;16.346;2024-02-28T11:44:42;30.6;;31.6;28.3;;;;;;
84988;SPS30;75301;48.238;16.346;2024-02-28T11:49:42;31.8;;33.1;29.3;;;;;;
84988;SPS30;75301;48.238;16.346;2024-02-28T11:54:42;30.4;;30.5;28.9;;;;;;
84988;SPS30;75301;48.238;16.346;2024-02-28T11:59:42;30.9;;31.1;29.2;;;;;;
84988;SPS30;75301;48.238;16.346;2024-02-28T12:04:42;31.2;;32.4;28.7;;;;;;
84988;SPS30;75301;48.238;16.346;2024-02-28T12:09:42;31.0;;31.6;29.2;;;;;;
84988;SPS30;75301;48.238;16.346;2024-02-28T12:14:42;31.2;;32.2;28.9;;;;;;
84988;SPS30;75301;48.238;16.346;2024-02-28T12:19:42;29.9;;30.3;28.2;;;;;;
84988;SPS30;75301;48.238;16.346;2024-02-28T12:24:42;29.7;;30.2;28.0;;;;;;
84988;SPS30;75301;48.238;16.346;2024-02-28T12:29:42;30.8;;31.2;29.1;;;;;;
84988;SPS30;75301;48.238;16.346;2024-02-28T12:34:42;33.1;;33.8;31.0;;;;;;
84988;SPS30;75301;48.238;16.346;2024-02-28T12:39:42;33.6;;34.6;31.2;;;;;;
84988;SPS30;75301;48.238;16.346;2024-02-28T12:44:42;32.3;;33.2;30.0;;;;;;
84988;SPS30;75301;48.238;16.346;2024-02-28T12:49:42;31.8;;31.9;30.3;;;;;;
84988;SPS30;75301;48.238;16.346;2024-02-28T12:54:42;32.2;;33.4;29.7;;;;;;
84988;SPS30;75301;48.238;16.346;2024-02-28T12:59:42;31.7;;33.1;29.1;;;;;;
84988;SPS30;75301;48.238;16.346;2024-02-28T13:04:42;30.5;;31.2;28.6;;;;;;
84988;SPS30;75301;48.238;16.346;2024-02-28T13:09:42;28.2;;28.7;26.4;;;;;;
84988;SPS30;75301;48.238;16.346;2024-02-28T13:14:42;27.8;;28.7;25.8;;;;;;
84988;SPS30;75301;48.238;16.346;2024-02-28T13:19:42;27.9;;29.0;25.7;;;;;;
84988;SPS30;75301;48.238;16.346;2024-02-28T13:24:42;26.5;;26.5;25.3;;;;;;
84988;SPS30;75301;48.238;16.346;2024-02-28T13:29:42;24.2;;24.2;23.0;;;;;;
84988;SPS30;75301;48.238;16.346;2024-02-28T13:34:42;24.8;;24.9;23.5;;;;;;
84988;SPS30;75301;48.238;16.346;2024-02-28T13:39:42;25.0;;25.5;23.5;;;;;;
84988;SPS30;75301;48.238;16.346;2024-02-28T13:44:42;26.7;;27.2;25.1;;;;;;
84988;SPS30;75301;48.238;16.346;2024-02-28T13:49:42;26.5;;26.5;25.3;;;;;;
84988;SPS30;75301;48.238;16.346;2024-02-28T13:54:42;24.7;;25.8;22.6;;;;;;
84988;SPS30;75301;48.238;16.346;2024-02-28T13:59:42;23.8;;23.9;22.6;;;;;;
84988;SPS30;75301;48.238;16.346;2024-02-28T14:04:42;23.4;;24.1;21.8;;;;;;
84988;SPS30;75301;48.238;16.346;2024-02-28T14:09:42;24.9;;26.1;22.7;;;;;;
84988;SPS30;75301;48.238;16.346;2024-02-28T14:14:42;24.2;;24.3;23.1;;;;;;
84988;SPS30;75301;48.238;16.346;2024-02-28T14:19:42;25.6;;25.9;24.3;;;;;;
84988;SPS30;75301;48.238;16.346;2024-02-28T14:24:42;24.4;;24.4;23.3;;;;;;
84988;SPS30;75301;48.238;16.346;2024-02-28T14:29:42;24.6;;24.6;23.4;;;;;;
84988;SPS30;75301;48.238;16.346;2024-02-28T14:34:42;26.6;;27.6;24.6;;;;;;
84988;SPS30;75301;48.238;16.346;2024-02-28T14:39:42;24.7;;25.8;22.7;;;;;;
84988;SPS30;75301;48.238;16.346;2024-02-28T14:44:42;23.7;;24.7;21.9;;;;;;
84988;SPS30;75301;48.238;16.346;2024-02-28T14:49:42;23.7;;24.6;21.9;;;;;;
84988;SPS30;75301;48.238;16.346;2024-02-28T14:54:42;25.1;;25.9;23.3;;;;;;
84988;SPS30;75301;48.238;16.346;2024-02-28T14:59:42;24.1;;24.8;22.5;;;;;;
84988;SPS30;75301;48.238;16.346;2024-02-28T15:04:42;25.7;;26.4;24.0;;;;;;
84988;SPS30;75301;48.238;16.346;2024-02-28T15:09:42;25.5;;26.3;23.7;;;;;;
84988;SPS30;75301;48.238;16.346;2024-02-28T15:14:42;24.2;;25.0;22.5;;;;;;
84988;SPS30;75301;48.238;16.346;2024-02-28T15:19:42;23.1;;23.5;21.8;;;;;;
84988;SPS30;75301;48.238;16.346;2024-02-28T15:24:42;25.0;;25.9;23.2;;;;;;
84988;SPS30;75301;48.238;16.346;2024-02-28T15:29:42;22.9;;23.8;21.1;;;;;;
84988;SPS30;75301;48.238;16.346;2024-02-28T15:34:42;22.5;;23.2;20.9;;;;;;
84988;SPS30;75301;48.238;16.346;2024-02-28T15:39:42;21.3;;22.3;19.6;;;;;;
84988;SPS30;75301;48.238;16.346;2024-02-28T15:44:42;22.6;;23.4;21.0;;;;;;
84988;SPS30;75301;48.238;16.346;2024-02-28T15:49:42;22.8;;23.6;21.1;;;;;;
84988;SPS30;75301;48.238;16.346;2024-02-28T15:54:42;22.6;;23.3;21.0;;;;;;
84988;SPS30;75301;48.238;16.346;2024-02-28T15:59:42;22.2;;22.9;20.6;;;;;;
84988;SPS30;75301;48.238;16.346;2024-02-28T16:04:42;23.8;;24.5;22.1;;;;;;
84988;SPS30;75301;48.238;16.346;2024-02-28T16:09:42;22.3;;23.1;20.6;;;;;;
84988;SPS30;75301;48.238;16.346;2024-02-28T16:14:42;23.1;;24.0;21.4;;;;;;
84988;SPS30;75301;48.238;16.346;2024-02-28T16:19:42;23.6;;24.5;21.8;;;;;;
84988;SPS30;75301;48.238;16.346;2024-02-28T16:24:42;24.1;;25.3;22.0;;;;;;
84988;SPS30;75301;48.238;16.346;2024-02-28T16:29:42;22.9;;23.6;21.4;;;;;;
84988;SPS30;75301;48.238;16.346;2024-02-28T16:34:42;23.6;;23.7;22.4;;;;;;
84988;SPS30;75301;48.238;16.346;2024-02-28T16:39:42;22.3;;22.9;20.8;;;;;;
84988;SPS30;75301;48.238;16.346;2024-02-28T16:44:42;23.4;;24.4;21.6;;;;;;
84988;SPS30;75301;48.238;16.346;2024-02-28T16:49:43;22.9;;23.8;21.1;;;;;;
84988;SPS30;75301;48.238;16.346;2024-02-28T16:54:42;22.9;;23.6;21.3;;;;;;
84988;SPS30;75301;48.238;16.346;2024-02-28T16:59:42;23.5;;24.4;21.6;;;;;;
84988;SPS30;75301;48.238;16.346;2024-02-28T17:04:42;22.8;;23.6;21.1;;;;;;
84988;SPS30;75301;48.238;16.346;2024-02-28T17:09:42;23.1;;23.8;21.4;;;;;;
84988;SPS30;75301;48.238;16.346;2024-02-28T17:14:42;22.0;;22.6;20.6;;;;;;
84988;SPS30;75301;48.238;16.346;2024-02-28T17:19:42;22.2;;22.7;20.8;;;;;;
84988;SPS30;75301;48.238;16.346;2024-02-28T17:24:42;21.1;;21.7;19.6;;;;;;
84988;SPS30;75301;48.238;16.346;2024-02-28T17:29:42;20.7;;21.3;19.3;;;;;;
84988;SPS30;75301;48.238;16.346;2024-02-28T17:34:42;21.5;;22.3;19.8;;;;;;
84988;SPS30;75301;48.238;16.346;2024-02-28T17:39:42;20.9;;21.5;19.4;;;;;;
84988;SPS30;75301;48.238;16.346;2024-02-28T17:44:42;20.7;;21.4;19.2;;;;;;
84988;SPS30;75301;48.238;16.346;2024-02-28T17:49:43;22.3;;23.2;20.5;;;;;;
84988;SPS30;75301;48.238;16.346;2024-02-28T17:54:42;20.6;;21.2;19.2;;;;;;
84988;SPS30;75301;48.238;16.346;2024-02-28T17:59:42;28.1;;28.3;26.7;;;;;;
84988;SPS30;75301;48.238;16.346;2024-02-28T18:04:42;21.6;;22.5;19.9;;;;;;
84988;SPS30;75301;48.238;16.346;2024-02-28T18:09:42;22.3;;23.0;20.6;;;;;;
84988;SPS30;75301;48.238;16.346;2024-02-28T18:14:42;20.5;;21.2;18.9;;;;;;
84988;SPS30;75301;48.238;16.346;2024-02-28T18:19:42;19.4;;20.1;18.0;;;;;;
84988;SPS30;75301;48.238;16.346;2024-02-28T18:24:42;20.0;;20.8;18.4;;;;;;
84988;SPS30;75301;48.238;16.346;2024-02-28T18:29:42;20.3;;21.3;18.5;;;;;;
84988;SPS30;75301;48.238;16.346;2024-02-28T18:34:42;18.4;;18.8;17.2;;;;;;
84988;SPS30;75301;48.238;16.346;2024-02-28T18:39:42;19.8;;20.5;18.3;;;;;;
84988;SPS30;75301;48.238;16.346;2024-02-28T18:44:42;17.8;;18.4;16.5;;;;;;
84988;SPS30;75301;48.238;16.346;2024-02-28T18:49:42;18.6;;19.4;17.1;;;;;;
84988;SPS30;75301;48.238;16.346;2024-02-28T18:54:43;19.8;;20.5;18.4;;;;;;
84988;SPS30;75301;48.238;16.346;2024-02-28T18:59:42;19.8;;20.6;18.1;;;;;;
84988;SPS30;75301;48.238;16.346;2024-02-28T19:04:43;19.6;;20.3;18.1;;;;;;
84988;SPS30;75301;48.238;16.346;2024-02-28T19:09:43;17.7;;18.4;16.4;;;;;;
84988;SPS30;75301;48.238;16.346;2024-02-28T19:14:42;18.7;;19.4;17.2;;;;;;
84988;SPS30;75301;48.238;16.346;2024-02-28T19:19:42;19.6;;20.5;18.0;;;;;;
84988;SPS30;75301;48.238;16.346;2024-02-28T19:24:42;20.8;;21.8;19.1;;;;;;
84988;SPS30;75301;48.238;16.346;2024-02-28T19:29:42;24.1;;24.8;22.4;;;;;;
84988;SPS30;75301;48.238;16.346;2024-02-28T19:34:43;20.3;;21.0;18.8;;;;;;
84988;SPS30;75301;48.238;16.346;2024-02-28T19:39:42;20.3;;21.2;18.7;;;;;;
84988;SPS30;75301;48.238;16.346;2024-02-28T19:44:42;19.2;;19.7;17.9;;;;;;
84988;SPS30;75301;48.238;16.346;2024-02-28T19:49:42;22.8;;23.9;21.0;;;;;;
84988;SPS30;75301;48.238;16.346;2024-02-28T19:54:42;21.8;;22.6;20.2;;;;;;
84988;SPS30;75301;48.238;16.346;2024-02-28T19:59:42;28.1;;29.3;25.9;;;;;;
84988;SPS30;75301;48.238;16.346;2024-02-28T20:04:42;26.0;;27.1;24.0;;;;;;
84988;SPS30;75301;48.238;16.346;2024-02-28T20:09:42;18.1;;18.5;16.9;;;;;;
84988;SPS30;75301;48.238;16.346;2024-02-28T20:14:42;18.6;;19.3;17.3;;;;;;
84988;SPS30;75301;48.238;16.346;2024-02-28T20:19:42;18.4;;19.2;16.9;;;;;;
84988;SPS30;75301;48.238;16.346;2024-02-28T20:24:42;20.2;;20.9;18.7;;;;;;
84988;SPS30;75301;48.238;16.346;2024-02-28T20:29:42;21.3;;22.4;19.4;;;;;;
84988;SPS30;75301;48.238;16.346;2024-02-28T20:34:42;17.7;;18.2;16.5;;;;;;
84988;SPS30;75301;48.238;16.346;2024-02-28T20:39:42;23.0;;23.6;21.5;;;;;;
84988;SPS30;75301;48.238;16.346;2024-02-28T20:44:42;19.8;;20.6;18.2;;;;;;
84988;SPS30;75301;48.238;16.346;2024-02-28T20:49:42;20.8;;21.6;19.3;;;;;;
84988;SPS30;75301;48.238;16.346;2024-02-28T20:54:43;18.3;;18.9;16.9;;;;;;
84988;SPS30;75301;48.238;16.346;2024-02-28T20:59:43;18.2;;18.9;16.8;;;;;;
84988;SPS30;75301;48.238;16.346;2024-02-28T21:04:42;18.8;;19.6;17.3;;;;;;
84988;SPS30;75301;48.238;16.346;2024-02-28T21:09:42;16.7;;17.0;15.8;;;;;;
84988;SPS30;75301;48.238;16.346;2024-02-28T21:14:42;19.0;;19.7;17.5;;;;;;
84988;SPS30;75301;48.238;16.346;2024-02-28T21:19:42;17.9;;18.7;16.5;;;;;;
84988;SPS30;75301;48.238;16.346;2024-02-28T21:24:42;17.8;;18.0;16.8;;;;;;
84988;SPS30;75301;48.238;16.346;2024-02-28T21:29:42;19.0;;19.7;17.7;;;;;;
84988;SPS30;75301;48.238;16.346;2024-02-28T21:34:42;18.6;;18.6;17.7;;;;;;
84988;SPS30;75301;48.238;16.346;2024-02-28T21:39:42;21.0;;21.8;19.4;;;;;;
84988;SPS30;75301;48.238;16.346;2024-02-28T21:44:42;19.8;;20.9;18.0;;;;;;
84988;SPS30;75301;48.238;16.346;2024-02-28T21:49:42;20.0;;20.8;18.4;;;;;;
84988;SPS30;75301;48.238;16.346;2024-02-28T21:54:42;19.0;;19.7;17.5;;;;;;
84988;SPS30;75301;48.238;16.346;2024-02-28T21:59:42;19.7;;20.5;18.1;;;;;;
84988;SPS30;75301;48.238;16.346;2024-02-28T22:04:42;20.6;;21.6;18.8;;;;;;
84988;SPS30;75301;48.238;16.346;2024-02-28T22:09:42;17.9;;18.5;16.6;;;;;;
84988;SPS30;75301;48.238;16.346;2024-02-28T22:14:42;19.1;;19.8;17.7;;;;;;
84988;SPS30;75301;48.238;16.346;2024-02-28T22:19:42;19.9;;20.5;18.6;;;;;;
84988;SPS30;75301;48.238;16.346;2024-02-28T22:24:42;20.6;;21.0;19.3;;;;;;
84988;SPS30;75301;48.238;16.346;2024-02-28T22:29:42;19.5;;20.3;18.0;;;;;;
84988;SPS30;75301;48.238;16.346;2024-02-28T22:34:42;20.7;;21.6;19.0;;;;;;
84988;SPS30;75301;48.238;16.346;2024-02-28T22:39:42;19.0;;19.5;17.7;;;;;;
84988;SPS30;75301;48.238;16.346;2024-02-28T22:44:44;18.6;;19.3;17.2;;;;;;
84988;SPS30;75301;48.238;16.346;2024-02-28T22:49:43;18.5;;19.1;17.1;;;;;;
84988;SPS30;75301;48.238;16.346;2024-02-28T22:54:43;20.3;;21.0;18.8;;;;;;
84988;SPS30;75301;48.238;16.346;2024-02-28T22:59:43;20.4;;21.1;18.9;;;;;;
84988;SPS30;75301;48.238;16.346;2024-02-28T23:04:43;20.1;;20.7;18.7;;;;;;
84988;SPS30;75301;48.238;16.346;2024-02-28T23:09:42;18.5;;18.5;17.6;;;;;;
84988;SPS30;75301;48.238;16.346;2024-02-28T23:14:42;19.2;;20.0;17.6;;;;;;
84988;SPS30;75301;48.238;16.346;2024-02-28T23:19:42;19.7;;20.4;18.1;;;;;;
84988;SPS30;75301;48.238;16.346;2024-02-28T23:24:42;18.0;;18.7;16.5;;;;;;
84988;SPS30;75301;48.238;16.346;2024-02-28T23:29:42;18.1;;18.5;16.9;;;;;;
84988;SPS30;75301;48.238;16.346;2024-02-28T23:34:43;17.1;;17.7;15.8;;;;;;
84988;SPS30;75301;48.238;16.346;2024-02-28T23:39:42;18.0;;18.7;16.7;;;;;;
84988;SPS30;75301;48.238;16.346;2024-02-28T23:44:42;18.3;;18.9;16.9;;;;;;
84988;SPS30;75301;48.238;16.346;2024-02-28T23:49:43;20.2;;21.1;18.6;;;;;;
84988;SPS30;75301;48.238;16.346;2024-02-28T23:54:43;19.9;;20.8;18.2;;;;;;
84988;SPS30;75301;48.238;16.346;2024-02-28T23:59:42;19.8;;20.1;18.7;;;;;;
